Currently 75°F in Murrieta, California, USA
75°F
75°F / 52°F
4 mph SW
0.00"
Saturday, September 23, 2017 1:07 PM PDT

Murrieta, California Weather Summary
Last 36 Hours

Temperature Winds Hourly Humidity Dewpoint
Time Report Norm Report Norm Max Gusts Precip. Rpt. Norm Rpt. Norm Pressure
1Sat 01:07 PM  74.7°F  86°F  4 mph SW  7 mph  9 mph  0.00"  44%  32%  51°F  52°F  29.87"
2Sat 01:03 PM  74.9°F  86°F  1 mph SW  7 mph  9 mph  ----  44%  33%  50°F  52°F  29.87"
Sat 01:00 PM  74.6°F  86°F  calm  7 mph  11 mph  0.00"  45%  33%  51°F  52°F  29.86"
Sat 12:00 PM  71.9°F  84°F  2 mph W  5 mph  9 mph  0.00"  48%  36%  50°F  53°F  29.88"
Sat 11:00 AM  68.5°F  80°F  3 mph S  4 mph  10 mph  0.00"  58%  44%  52°F  55°F  29.89"
Sat 10:00 AM  65.0°F  74°F  2 mph SW  2 mph  9 mph  0.00"  66%  56%  53°F  57°F  29.90"
Sat 09:00 AM  58.8°F  69°F  calm  1 mph  4 mph  0.00"  89%  70%  55°F  58°F  29.90"
Sat 08:00 AM  54.2°F  62°F  calm  1 mph  5 mph  0.00"  95%  80%  53°F  56°F  29.89"
3Sat 07:04 AM  51.6°F  59°F  calm  1 mph  4 mph  ----  96%  83%  51°F  53°F  29.88"
Sat 07:00 AM  51.7°F  59°F  3 mph SW  1 mph  6 mph  0.00"  96%  83%  51°F  53°F  29.88"
Sat 06:00 AM  52.8°F  59°F  2 mph W  1 mph  4 mph  0.00"  96%  82%  52°F  53°F  29.86"
Sat 05:00 AM  51.8°F  60°F  2 mph W  1 mph  8 mph  0.00"  96%  81%  51°F  53°F  29.86"
Sat 04:00 AM  52.3°F  60°F  3 mph SW  1 mph  8 mph  0.00"  95%  79%  51°F  54°F  29.85"
Sat 03:00 AM  52.9°F  61°F  4 mph W  1 mph  8 mph  0.00"  95%  78%  51°F  54°F  29.85"
Sat 02:00 AM  53.9°F  62°F  5 mph SW  1 mph  8 mph  0.00"  94%  77%  52°F  54°F  29.86"
Sat 01:00 AM  54.4°F  63°F  5 mph SW  1 mph  7 mph  0.00"  91%  75%  52°F  55°F  29.85"
Sat 12:00 AM  56.3°F  64°F  3 mph SW  1 mph  8 mph  0.00"  89%  74%  53°F  55°F  29.86"
Fri 11:00 PM  58.1°F  65°F  2 mph SW  1 mph  8 mph  0.00"  84%  73%  53°F  56°F  29.86"
Fri 10:00 PM  59.3°F  66°F  calm  2 mph  3 mph  0.00"  78%  71%  52°F  56°F  29.86"
Fri 09:00 PM  62.0°F  68°F  calm  3 mph  16 mph  0.00"  73%  68%  53°F  57°F  29.86"
Fri 08:00 PM  62.7°F  70°F  calm  5 mph  14 mph  0.00"  70%  64%  52°F  57°F  29.84"
Fri 07:00 PM  64.1°F  74°F  6 mph W  7 mph  16 mph  0.00"  65%  57%  52°F  57°F  29.83"
Fri 06:00 PM  66.6°F  78°F  6 mph W  8 mph  19 mph  0.00"  60%  48%  52°F  56°F  29.83"
Fri 05:00 PM  69.4°F  82°F  calm  8 mph  18 mph  0.00"  56%  40%  52°F  54°F  29.83"
Fri 04:00 PM  71.0°F  85°F  7 mph W  9 mph  14 mph  0.00"  54%  36%  53°F  54°F  29.83"
Fri 03:00 PM  72.5°F  86°F  2 mph W  9 mph  16 mph  0.00"  48%  34%  51°F  53°F  29.84"
Fri 02:00 PM  71.3°F  86°F  7 mph SW  8 mph  12 mph  0.00"  50%  33%  51°F  53°F  29.86"
Fri 01:00 PM  69.0°F  86°F  3 mph SW  7 mph  12 mph  0.00"  53%  33%  50°F  53°F  29.88"
Fri 12:00 PM  67.5°F  84°F  1 mph SW  5 mph  12 mph  0.00"  57%  37%  51°F  54°F  29.90"
Fri 11:00 AM  66.7°F  80°F  5 mph SW  4 mph  12 mph  0.00"  63%  45%  53°F  56°F  29.92"
Fri 10:00 AM  64.1°F  75°F  4 mph SW  3 mph  11 mph  0.00"  67%  57%  52°F  58°F  29.94"
Fri 09:00 AM  59.4°F  69°F  2 mph S  1 mph  5 mph  0.00"  72%  71%  50°F  58°F  29.93"
Fri 08:00 AM  53.2°F  62°F  calm  1 mph  1 mph  0.00"  92%  81%  51°F  56°F  29.92"
Fri 07:00 AM  50.2°F  59°F  calm  1 mph  none  0.00"  95%  84%  49°F  54°F  29.91"
Fri 06:00 AM  49.9°F  59°F  calm  1 mph  5 mph  0.00"  93%  83%  48°F  54°F  29.89"
Fri 05:00 AM  50.7°F  60°F  calm  1 mph  5 mph  0.00"  93%  82%  49°F  54°F  29.88"
Fri 04:00 AM  51.4°F  60°F  calm  1 mph  8 mph  0.00"  92%  81%  49°F  54°F  29.88"
Fri 03:00 AM  51.3°F  61°F  4 mph SW  1 mph  8 mph  0.00"  93%  80%  49°F  54°F  29.88"
Fri 02:00 AM  51.4°F  62°F  5 mph SW  1 mph  10 mph  0.00"  92%  78%  49°F  55°F  29.89"

  1. Current weather data. No green row appears if the current weather data is also the high or low for the current day.
  2. High temperature for the current day.
  3. Low temperature for the current day.

The Murrieta weather pages are a service of WeatherCurrents. Murrieta, California is located in the Temecula Valley, in southwestern Riverside County, at the junctions of the Interstate 15 and 215 highways.
Copyright ©Sat Sep 23 13:08:18 PDT 2017  WeatherCurrents. All rights reserved. - Submit questions and comments - Privacy Policy

This page automatically refreshes every 10 minutes.